createdAt,value
2017-10-29T00:00:51.728Z,61.30
2017-10-29T00:01:51.763Z,61.20
2017-10-29T00:02:51.767Z,61.20
2017-10-29T00:03:51.792Z,61.78
2017-10-29T00:04:51.839Z,61.40
2017-10-29T00:05:52.225Z,61.49
2017-10-29T00:06:51.913Z,61.40
2017-10-29T00:07:51.934Z,61.49
2017-10-29T00:08:51.966Z,61.49
2017-10-29T00:09:51.988Z,61.40
2017-10-29T00:10:52.033Z,61.49
2017-10-29T00:11:52.168Z,61.40
2017-10-29T00:12:52.332Z,61.78
2017-10-29T00:13:52.128Z,61.97
2017-10-29T00:14:52.123Z,62.07
2017-10-29T00:15:52.192Z,62.07
2017-10-29T00:16:52.183Z,61.49
2017-10-29T00:17:52.274Z,61.20
2017-10-29T00:18:52.270Z,61.49
2017-10-29T00:19:52.626Z,61.68
2017-10-29T00:20:52.323Z,61.58
2017-10-29T00:21:52.338Z,61.49
2017-10-29T00:22:52.463Z,61.49
2017-10-29T00:23:52.406Z,61.78
2017-10-29T00:24:52.437Z,62.07
2017-10-29T00:25:52.489Z,62.07
2017-10-29T00:26:52.821Z,61.87
2017-10-29T00:27:52.585Z,61.97
2017-10-29T00:28:52.566Z,62.16
2017-10-29T00:29:52.609Z,62.16
2017-10-29T00:30:52.613Z,62.07
2017-10-29T00:31:52.649Z,61.68
2017-10-29T00:32:52.700Z,61.97
2017-10-29T00:33:53.031Z,61.87
2017-10-29T00:34:52.738Z,62.16
2017-10-29T00:35:52.762Z,61.87
2017-10-29T00:36:52.815Z,62.16
2017-10-29T00:37:52.890Z,61.97
2017-10-29T00:38:52.893Z,62.19
2017-10-29T00:39:52.891Z,62.07
2017-10-29T00:40:53.267Z,61.68
2017-10-29T00:41:52.956Z,62.07
2017-10-29T00:42:52.990Z,62.07
2017-10-29T00:43:53.184Z,62.16
2017-10-29T00:44:53.035Z,61.87
2017-10-29T00:45:53.116Z,61.97
2017-10-29T00:46:53.097Z,62.19
2017-10-29T00:47:53.427Z,61.91
2017-10-29T00:48:53.185Z,62.16
2017-10-29T00:49:53.192Z,61.87
2017-10-29T00:50:53.238Z,62.07
2017-10-29T00:51:53.260Z,62.10
2017-10-29T00:52:53.297Z,62.26
2017-10-29T00:53:53.416Z,62.16
2017-10-29T00:54:53.646Z,61.97
2017-10-29T00:55:53.368Z,62.07
2017-10-29T00:56:53.416Z,61.61
2017-10-29T00:57:53.436Z,61.87
2017-10-29T00:58:53.508Z,62.07
2017-10-29T00:59:53.511Z,62.16
2017-10-29T01:00:53.546Z,62.07
2017-10-29T01:01:53.880Z,62.00
2017-10-29T01:02:53.583Z,62.10
2017-10-29T01:03:53.615Z,62.26
2017-10-29T01:04:53.663Z,61.97
2017-10-29T01:05:53.712Z,61.68
2017-10-29T01:06:53.746Z,62.16
2017-10-29T01:07:53.732Z,61.52
2017-10-29T01:08:54.076Z,62.16
2017-10-29T01:09:53.813Z,61.87
2017-10-29T01:10:53.825Z,62.00
2017-10-29T01:11:53.855Z,62.16
2017-10-29T01:12:53.885Z,62.16
2017-10-29T01:13:53.921Z,61.91
2017-10-29T01:14:53.962Z,61.91
2017-10-29T01:15:54.299Z,62.16
2017-10-29T01:16:54.012Z,62.07
2017-10-29T01:17:54.053Z,61.78
2017-10-29T01:18:54.085Z,62.16
2017-10-29T01:19:54.123Z,62.10
2017-10-29T01:20:54.131Z,62.00
2017-10-29T01:21:54.157Z,62.19
2017-10-29T01:22:54.490Z,62.07
2017-10-29T01:23:54.240Z,62.07
2017-10-29T01:24:54.269Z,61.97
2017-10-29T01:25:54.306Z,61.87
2017-10-29T01:26:54.307Z,61.87
2017-10-29T01:27:54.345Z,62.07
2017-10-29T01:28:54.680Z,62.07
2017-10-29T01:29:54.400Z,61.91
2017-10-29T01:30:54.441Z,62.16
2017-10-29T01:31:54.476Z,61.97
2017-10-29T01:32:54.494Z,61.87
2017-10-29T01:33:54.548Z,61.81
2017-10-29T01:34:54.869Z,61.97
2017-10-29T01:35:54.634Z,62.16
2017-10-29T01:36:54.652Z,61.87
2017-10-29T01:37:54.660Z,62.16
2017-10-29T01:38:54.748Z,61.91
2017-10-29T01:39:54.754Z,61.97
2017-10-29T01:40:54.992Z,62.10
2017-10-29T01:41:54.868Z,62.16
2017-10-29T01:42:54.820Z,61.91
2017-10-29T01:43:54.831Z,62.07
2017-10-29T01:44:54.856Z,61.87
2017-10-29T01:45:54.903Z,62.16
2017-10-29T01:46:55.186Z,62.10
2017-10-29T01:47:54.966Z,61.78
2017-10-29T01:48:54.998Z,62.16
2017-10-29T01:49:55.007Z,62.07
2017-10-29T01:50:55.061Z,62.10
2017-10-29T01:51:55.066Z,61.81
2017-10-29T01:52:55.802Z,62.10
2017-10-29T01:53:55.153Z,62.16
2017-10-29T01:54:55.186Z,62.07
2017-10-29T01:55:55.190Z,62.19
2017-10-29T01:56:55.238Z,62.07
2017-10-29T01:57:55.250Z,62.07
2017-10-29T01:58:55.604Z,62.16
2017-10-29T01:59:55.332Z,61.71
2017-10-29T02:00:55.358Z,61.87
2017-10-29T02:01:55.373Z,61.97
2017-10-29T02:02:55.415Z,62.07
2017-10-29T02:03:55.446Z,62.16
2017-10-29T02:04:55.808Z,61.97
2017-10-29T02:05:55.505Z,62.16
2017-10-29T02:06:55.528Z,62.00
2017-10-29T02:07:55.566Z,61.87
2017-10-29T02:08:55.737Z,61.87
2017-10-29T02:09:55.617Z,61.87
2017-10-29T02:10:55.913Z,61.97
2017-10-29T02:11:55.697Z,61.87
2017-10-29T02:12:55.723Z,61.97
2017-10-29T02:13:55.738Z,61.78
2017-10-29T02:14:55.782Z,62.29
2017-10-29T02:15:55.821Z,61.58
2017-10-29T02:16:56.128Z,61.87
2017-10-29T02:17:55.885Z,62.07
2017-10-29T02:18:55.948Z,62.07
2017-10-29T02:19:55.941Z,61.91
2017-10-29T02:20:55.965Z,62.10
2017-10-29T02:21:56.015Z,61.68
2017-10-29T02:22:56.289Z,61.97
2017-10-29T02:23:56.048Z,62.16
2017-10-29T02:24:56.171Z,62.07
2017-10-29T02:25:56.114Z,61.97
2017-10-29T02:26:56.129Z,62.07
2017-10-29T02:27:56.170Z,62.16
2017-10-29T02:28:56.461Z,62.00
2017-10-29T02:29:56.222Z,61.87
2017-10-29T02:30:56.461Z,62.07
2017-10-29T02:31:56.281Z,61.68
2017-10-29T02:32:56.338Z,61.81
2017-10-29T02:33:56.344Z,62.00
2017-10-29T02:34:56.623Z,61.87
2017-10-29T02:35:56.424Z,61.68
2017-10-29T02:36:56.557Z,61.91
2017-10-29T02:37:56.489Z,61.97
2017-10-29T02:38:56.515Z,61.97
2017-10-29T02:39:56.531Z,62.26
2017-10-29T02:40:56.556Z,62.07
2017-10-29T02:41:56.909Z,62.26
2017-10-29T02:42:56.635Z,62.10
2017-10-29T02:43:56.651Z,62.10
2017-10-29T02:44:56.684Z,61.61
2017-10-29T02:45:56.720Z,61.87
2017-10-29T02:46:56.739Z,61.91
2017-10-29T02:47:56.792Z,61.91
2017-10-29T02:48:57.104Z,61.91
2017-10-29T02:49:56.849Z,61.91
2017-10-29T02:50:56.864Z,62.07
2017-10-29T02:51:56.892Z,61.87
2017-10-29T02:52:56.937Z,62.16
2017-10-29T02:53:56.957Z,61.87
2017-10-29T02:54:57.330Z,62.10
2017-10-29T02:55:57.260Z,61.91
2017-10-29T02:56:57.081Z,62.00
2017-10-29T02:57:57.071Z,61.78
2017-10-29T02:58:57.112Z,62.26
2017-10-29T02:59:57.140Z,61.91
2017-10-29T03:00:57.255Z,61.78
2017-10-29T03:01:57.208Z,62.07
2017-10-29T03:02:57.473Z,62.00
2017-10-29T03:03:57.272Z,61.87
2017-10-29T03:04:57.301Z,62.10
2017-10-29T03:05:57.333Z,62.29
2017-10-29T03:06:57.601Z,61.97
2017-10-29T03:07:57.402Z,62.35
2017-10-29T03:08:57.423Z,62.00
2017-10-29T03:09:57.787Z,61.97
2017-10-29T03:10:57.469Z,61.97
2017-10-29T03:11:57.537Z,61.97
2017-10-29T03:12:57.642Z,62.16
2017-10-29T03:13:57.569Z,61.91
2017-10-29T03:14:57.689Z,61.97
2017-10-29T03:15:57.628Z,62.07
2017-10-29T03:16:57.906Z,62.29
2017-10-29T03:17:57.714Z,62.16
2017-10-29T03:18:57.721Z,62.29
2017-10-29T03:19:57.808Z,62.00
2017-10-29T03:20:57.782Z,61.97
2017-10-29T03:21:57.843Z,61.61
2017-10-29T03:22:57.847Z,62.16
2017-10-29T03:23:58.130Z,62.00
2017-10-29T03:24:57.917Z,62.00
2017-10-29T03:25:57.939Z,61.91
2017-10-29T03:26:57.956Z,62.19
2017-10-29T03:27:57.988Z,62.29
2017-10-29T03:28:58.037Z,62.00
2017-10-29T03:29:58.095Z,62.00
2017-10-29T03:30:58.351Z,62.48
2017-10-29T03:31:58.147Z,62.00
2017-10-29T03:32:58.138Z,62.19
2017-10-29T03:33:58.167Z,62.00
2017-10-29T03:34:58.195Z,62.38
2017-10-29T03:35:58.415Z,62.26
2017-10-29T03:36:58.275Z,62.29
2017-10-29T03:37:58.606Z,62.29
2017-10-29T03:38:58.363Z,61.61
2017-10-29T03:39:58.366Z,62.10
2017-10-29T03:40:58.381Z,62.29
2017-10-29T03:41:58.436Z,62.38
2017-10-29T03:42:58.448Z,62.19
2017-10-29T03:43:58.488Z,62.35
2017-10-29T03:44:58.768Z,62.00
2017-10-29T03:45:58.541Z,62.48
2017-10-29T03:46:58.564Z,62.29
2017-10-29T03:47:58.679Z,62.26
2017-10-29T03:48:58.648Z,62.10
2017-10-29T03:49:58.736Z,62.38
2017-10-29T03:50:58.721Z,62.38
2017-10-29T03:51:58.965Z,62.10
2017-10-29T03:52:58.817Z,62.29
2017-10-29T03:53:58.780Z,62.26
2017-10-29T03:54:58.824Z,61.97
2017-10-29T03:55:58.849Z,62.38
2017-10-29T03:56:58.891Z,62.26
2017-10-29T03:57:58.917Z,61.97
2017-10-29T03:58:59.226Z,61.81
2017-10-29T03:59:58.973Z,62.07
2017-10-29T04:00:58.991Z,61.97
2017-10-29T04:01:59.033Z,62.38
2017-10-29T04:02:59.065Z,62.38
2017-10-29T04:03:59.243Z,62.10
2017-10-29T04:04:59.409Z,62.19
2017-10-29T04:05:59.143Z,62.00
2017-10-29T04:06:59.199Z,61.97
2017-10-29T04:07:59.227Z,62.58
2017-10-29T04:08:59.248Z,62.19
2017-10-29T04:09:59.271Z,62.00
2017-10-29T04:10:59.549Z,62.38
2017-10-29T04:11:59.339Z,62.00
2017-10-29T04:12:59.365Z,62.29
2017-10-29T04:13:59.485Z,62.48
2017-10-29T04:14:59.413Z,62.10
2017-10-29T04:15:59.442Z,62.29
2017-10-29T04:16:59.738Z,62.29
2017-10-29T04:17:59.527Z,62.00
2017-10-29T04:18:59.535Z,62.00
2017-10-29T04:19:59.791Z,62.38
2017-10-29T04:20:59.594Z,62.29
2017-10-29T04:21:59.641Z,62.00
2017-10-29T04:22:59.929Z,62.19
2017-10-29T04:23:59.684Z,62.38
2017-10-29T04:24:59.736Z,62.26
2017-10-29T04:25:59.767Z,61.97
2017-10-29T04:26:59.778Z,62.07
2017-10-29T04:27:59.812Z,62.38
2017-10-29T04:29:00.136Z,62.00
2017-10-29T04:29:59.901Z,62.00
2017-10-29T04:31:00.101Z,62.00
2017-10-29T04:31:59.947Z,62.00
2017-10-29T04:32:59.958Z,61.97
2017-10-29T04:33:59.992Z,62.10
2017-10-29T04:35:00.347Z,62.29
2017-10-29T04:36:00.049Z,62.35
2017-10-29T04:37:00.131Z,62.29
2017-10-29T04:38:00.143Z,62.29
2017-10-29T04:39:00.145Z,62.07
2017-10-29T04:40:00.188Z,62.16
2017-10-29T04:41:00.472Z,62.16
2017-10-29T04:42:00.262Z,62.10
2017-10-29T04:43:00.387Z,62.16
2017-10-29T04:44:00.312Z,62.26
2017-10-29T04:45:00.340Z,61.97
2017-10-29T04:46:00.354Z,61.78
2017-10-29T04:47:00.715Z,62.26
2017-10-29T04:48:00.431Z,62.19
2017-10-29T04:49:00.446Z,62.07
2017-10-29T04:50:00.500Z,62.07
2017-10-29T04:51:00.508Z,61.87
2017-10-29T04:52:00.537Z,62.00
2017-10-29T04:53:00.949Z,61.78
2017-10-29T04:54:00.599Z,61.87
2017-10-29T04:55:00.629Z,61.91
2017-10-29T04:56:00.660Z,61.97
2017-10-29T04:57:00.686Z,61.97
2017-10-29T04:58:00.786Z,61.87
2017-10-29T04:59:01.064Z,62.00
2017-10-29T05:00:00.790Z,61.87
2017-10-29T05:01:00.844Z,61.81
2017-10-29T05:02:00.839Z,61.97
2017-10-29T05:03:00.870Z,61.87
2017-10-29T05:04:00.922Z,61.97
2017-10-29T05:05:01.236Z,61.87
2017-10-29T05:06:01.029Z,61.97
2017-10-29T05:07:01.014Z,61.78
2017-10-29T05:08:01.018Z,61.68
2017-10-29T05:09:01.059Z,61.87
2017-10-29T05:10:01.100Z,61.71
2017-10-29T05:11:01.423Z,61.58
2017-10-29T05:12:01.159Z,61.97
2017-10-29T05:13:01.216Z,61.97
2017-10-29T05:14:01.202Z,61.97
2017-10-29T05:15:01.235Z,61.87
2017-10-29T05:16:01.266Z,61.87
2017-10-29T05:17:01.298Z,61.87
2017-10-29T05:18:01.575Z,61.87
2017-10-29T05:19:01.364Z,61.68
2017-10-29T05:20:01.403Z,61.97
2017-10-29T05:21:01.484Z,61.97
2017-10-29T05:22:01.448Z,62.07
2017-10-29T05:23:01.488Z,61.78
2017-10-29T05:24:01.514Z,61.58
2017-10-29T05:25:01.789Z,61.97
2017-10-29T05:26:01.583Z,61.68
2017-10-29T05:27:01.628Z,61.78
2017-10-29T05:28:01.630Z,61.97
2017-10-29T05:29:01.675Z,62.16
2017-10-29T05:30:01.708Z,61.87
2017-10-29T05:31:01.722Z,62.07
2017-10-29T05:32:02.076Z,61.97
2017-10-29T05:33:01.795Z,61.78
2017-10-29T05:34:01.818Z,61.87
2017-10-29T05:35:01.846Z,62.16
2017-10-29T05:36:01.873Z,62.07
2017-10-29T05:37:01.931Z,62.26
2017-10-29T05:38:01.955Z,62.07
2017-10-29T05:39:02.233Z,61.68
2017-10-29T05:40:01.990Z,61.49
2017-10-29T05:41:02.030Z,62.07
2017-10-29T05:42:02.070Z,61.68
2017-10-29T05:43:02.111Z,61.49
2017-10-29T05:44:02.138Z,62.07
2017-10-29T05:45:02.146Z,61.78
2017-10-29T05:46:02.592Z,61.49
2017-10-29T05:47:02.227Z,61.97
2017-10-29T05:48:02.235Z,61.97
2017-10-29T05:49:02.265Z,61.49
2017-10-29T05:50:02.299Z,61.68
2017-10-29T05:51:02.357Z,61.58
2017-10-29T05:52:02.392Z,61.30
2017-10-29T05:53:02.689Z,61.49
2017-10-29T05:54:02.420Z,61.68
2017-10-29T05:55:02.470Z,61.30
2017-10-29T05:56:02.513Z,61.49
2017-10-29T05:57:02.543Z,61.40
2017-10-29T05:58:02.538Z,61.30
2017-10-29T05:59:02.573Z,61.40
2017-10-29T06:00:02.927Z,61.40
2017-10-29T06:01:02.649Z,61.40
2017-10-29T06:02:02.657Z,61.40
2017-10-29T06:03:02.691Z,61.30
2017-10-29T06:04:02.827Z,61.20
2017-10-29T06:05:02.768Z,61.20
2017-10-29T06:06:02.797Z,61.49
2017-10-29T06:07:03.125Z,61.20
2017-10-29T06:08:02.857Z,61.30
2017-10-29T06:09:02.887Z,61.40
2017-10-29T06:10:02.926Z,61.58
2017-10-29T06:11:02.932Z,61.40
2017-10-29T06:12:02.977Z,61.49
2017-10-29T06:13:03.029Z,61.40
2017-10-29T06:14:03.273Z,61.49
2017-10-29T06:15:03.073Z,61.40
2017-10-29T06:16:03.084Z,61.68
2017-10-29T06:17:03.123Z,61.40
2017-10-29T06:18:03.147Z,61.49
2017-10-29T06:19:03.180Z,61.49
2017-10-29T06:20:03.229Z,61.49
2017-10-29T06:21:03.505Z,61.40
2017-10-29T06:22:03.440Z,61.78
2017-10-29T06:23:03.293Z,61.58
2017-10-29T06:24:03.338Z,61.58
2017-10-29T06:25:03.382Z,61.40
2017-10-29T06:26:03.402Z,61.49
2017-10-29T06:27:03.433Z,61.40
2017-10-29T06:28:03.751Z,61.78
2017-10-29T06:29:03.532Z,61.49
2017-10-29T06:30:03.536Z,61.58
2017-10-29T06:31:03.548Z,61.11
2017-10-29T06:32:03.597Z,61.20
2017-10-29T06:33:03.614Z,61.30
2017-10-29T06:34:03.898Z,61.30
2017-10-29T06:35:03.714Z,61.49
2017-10-29T06:36:03.710Z,61.11
2017-10-29T06:37:03.724Z,61.40
2017-10-29T06:38:03.782Z,61.20
2017-10-29T06:39:03.824Z,61.20
2017-10-29T06:40:04.142Z,61.40
2017-10-29T06:41:03.847Z,61.78
2017-10-29T06:42:03.882Z,61.30
2017-10-29T06:43:03.911Z,61.68
2017-10-29T06:44:03.953Z,61.68
2017-10-29T06:45:03.980Z,61.49
2017-10-29T06:46:04.493Z,61.78
2017-10-29T06:47:04.024Z,61.20
2017-10-29T06:48:04.056Z,61.40
2017-10-29T06:49:04.081Z,61.20
2017-10-29T06:50:04.126Z,61.20
2017-10-29T06:51:04.167Z,61.49
2017-10-29T06:52:04.580Z,61.68
2017-10-29T06:53:04.200Z,61.49
2017-10-29T06:54:04.234Z,61.11
2017-10-29T06:55:04.281Z,60.91
2017-10-29T06:56:04.294Z,60.91
2017-10-29T06:57:04.341Z,61.01
2017-10-29T06:58:04.673Z,61.20
2017-10-29T06:59:04.384Z,61.20
2017-10-29T07:00:04.411Z,61.20
2017-10-29T07:01:04.461Z,61.11
2017-10-29T07:02:04.502Z,61.20
2017-10-29T07:03:04.521Z,61.20
2017-10-29T07:04:04.800Z,61.11
2017-10-29T07:05:04.565Z,61.49
2017-10-29T07:06:04.642Z,61.20
2017-10-29T07:07:04.690Z,61.20
2017-10-29T07:08:04.699Z,61.01
2017-10-29T07:09:04.704Z,61.20
2017-10-29T07:10:04.993Z,61.20
2017-10-29T07:11:04.819Z,61.40
2017-10-29T07:12:04.966Z,61.49
2017-10-29T07:13:04.808Z,61.11
2017-10-29T07:14:04.845Z,61.14
2017-10-29T07:15:04.870Z,61.20
2017-10-29T07:16:05.217Z,61.33
2017-10-29T07:17:04.970Z,60.91
2017-10-29T07:18:04.967Z,60.56
2017-10-29T07:19:05.018Z,60.75
2017-10-29T07:20:05.034Z,60.53
2017-10-29T07:21:05.072Z,60.75
2017-10-29T07:22:05.402Z,61.04
2017-10-29T07:23:05.124Z,60.53
2017-10-29T07:24:05.162Z,60.75
2017-10-29T07:25:05.196Z,60.63
2017-10-29T07:26:05.229Z,60.53
2017-10-29T07:27:05.263Z,60.53
2017-10-29T07:28:05.578Z,60.72
2017-10-29T07:29:05.308Z,60.72
2017-10-29T07:30:05.352Z,60.82
2017-10-29T07:31:05.385Z,60.17
2017-10-29T07:32:05.389Z,60.14
2017-10-29T07:33:05.437Z,60.08
2017-10-29T07:34:05.724Z,60.53
2017-10-29T07:35:05.509Z,60.63
2017-10-29T07:36:05.544Z,60.34
2017-10-29T07:37:05.557Z,60.53
2017-10-29T07:38:05.588Z,60.85
2017-10-29T07:39:05.821Z,60.43
2017-10-29T07:40:05.881Z,60.43
2017-10-29T07:41:05.679Z,60.46
2017-10-29T07:42:05.708Z,60.75
2017-10-29T07:43:05.724Z,60.56
2017-10-29T07:44:05.752Z,60.56
2017-10-29T07:45:05.851Z,60.46
2017-10-29T07:46:06.155Z,60.08
2017-10-29T07:47:05.901Z,60.17
2017-10-29T07:48:05.891Z,59.99
2017-10-29T07:49:05.951Z,60.08
2017-10-29T07:50:05.975Z,60.08
2017-10-29T07:51:05.981Z,60.27
2017-10-29T07:52:06.011Z,59.99
2017-10-29T07:53:06.284Z,60.27
2017-10-29T07:54:06.061Z,59.89
2017-10-29T07:55:06.091Z,60.17
2017-10-29T07:56:06.135Z,59.69
2017-10-29T07:57:06.178Z,59.79
2017-10-29T07:58:06.196Z,59.79
2017-10-29T07:59:06.231Z,60.37
2017-10-29T08:00:06.608Z,60.17
2017-10-29T08:01:06.272Z,59.79
2017-10-29T08:02:06.308Z,59.79
2017-10-29T08:03:06.355Z,59.50
2017-10-29T08:04:06.363Z,59.99
2017-10-29T08:05:06.400Z,59.60
2017-10-29T08:06:06.428Z,59.99
2017-10-29T08:07:06.722Z,59.79
2017-10-29T08:08:06.488Z,59.69
2017-10-29T08:09:06.512Z,60.08
2017-10-29T08:10:06.574Z,59.89
2017-10-29T08:11:06.646Z,59.31
2017-10-29T08:12:06.612Z,59.41
2017-10-29T08:13:06.663Z,59.31
2017-10-29T08:14:06.996Z,59.31
2017-10-29T08:15:07.124Z,59.41
2017-10-29T08:16:06.743Z,59.50
2017-10-29T08:17:06.773Z,59.22
2017-10-29T08:18:06.787Z,58.92
2017-10-29T08:19:06.834Z,59.60
2017-10-29T08:20:06.866Z,59.31
2017-10-29T08:21:07.137Z,58.92
2017-10-29T08:22:06.921Z,59.50
2017-10-29T08:23:06.963Z,59.50
2017-10-29T08:24:06.982Z,59.31
2017-10-29T08:25:07.001Z,59.41
2017-10-29T08:26:07.051Z,59.22
2017-10-29T08:27:07.064Z,59.12
2017-10-29T08:28:07.359Z,59.50
2017-10-29T08:29:07.721Z,59.31
2017-10-29T08:30:07.177Z,59.69
2017-10-29T08:31:07.200Z,59.41
2017-10-29T08:32:07.365Z,59.41
2017-10-29T08:33:07.244Z,59.31
2017-10-29T08:34:07.294Z,58.92
2017-10-29T08:35:07.557Z,58.73
2017-10-29T08:36:07.339Z,58.54
2017-10-29T08:37:07.371Z,58.92
2017-10-29T08:38:07.443Z,58.73
2017-10-29T08:39:07.436Z,58.54
2017-10-29T08:40:07.464Z,58.54
2017-10-29T08:41:07.657Z,58.83
2017-10-29T08:42:07.894Z,58.54
2017-10-29T08:43:07.551Z,58.64
2017-10-29T08:44:07.580Z,58.15
2017-10-29T08:45:07.669Z,58.64
2017-10-29T08:46:07.646Z,58.35
2017-10-29T08:47:07.759Z,58.15
2017-10-29T08:48:07.718Z,58.64
2017-10-29T08:49:08.020Z,58.54
2017-10-29T08:50:07.786Z,58.45
2017-10-29T08:51:07.795Z,58.25
2017-10-29T08:52:07.843Z,58.92
2017-10-29T08:53:08.034Z,58.92
2017-10-29T08:54:07.912Z,58.54
2017-10-29T08:55:07.921Z,58.73
2017-10-29T08:56:08.246Z,58.64
2017-10-29T08:57:08.001Z,58.64
2017-10-29T08:58:08.014Z,58.25
2017-10-29T08:59:08.109Z,57.97
2017-10-29T09:00:08.090Z,58.54
2017-10-29T09:01:08.101Z,58.73
2017-10-29T09:02:08.132Z,58.45
2017-10-29T09:03:08.467Z,58.15
2017-10-29T09:04:08.211Z,58.35
2017-10-29T09:05:08.276Z,58.45
2017-10-29T09:06:08.278Z,57.87
2017-10-29T09:07:08.289Z,57.97
2017-10-29T09:08:08.335Z,58.35
2017-10-29T09:09:08.614Z,57.97
2017-10-29T09:10:08.383Z,57.97
2017-10-29T09:11:08.427Z,58.35
2017-10-29T09:12:08.457Z,58.15
2017-10-29T09:13:08.486Z,57.97
2017-10-29T09:14:08.501Z,58.15
2017-10-29T09:15:08.780Z,58.15
2017-10-29T09:16:08.581Z,57.29
2017-10-29T09:17:08.657Z,57.97
2017-10-29T09:18:08.622Z,58.06
2017-10-29T09:19:08.673Z,57.97
2017-10-29T09:20:08.712Z,58.06
2017-10-29T09:21:09.063Z,58.25
2017-10-29T09:22:08.748Z,58.06
2017-10-29T09:23:08.784Z,58.15
2017-10-29T09:24:08.829Z,57.20
2017-10-29T09:25:08.839Z,57.58
2017-10-29T09:26:08.865Z,57.68
2017-10-29T09:27:09.168Z,57.39
2017-10-29T09:28:08.946Z,57.58
2017-10-29T09:29:08.981Z,57.97
2017-10-29T09:30:09.013Z,58.25
2017-10-29T09:31:09.047Z,58.25
2017-10-29T09:32:09.076Z,57.68
2017-10-29T09:33:09.380Z,58.25
2017-10-29T09:34:09.136Z,58.25
2017-10-29T09:35:09.160Z,57.68
2017-10-29T09:36:09.248Z,57.68
2017-10-29T09:37:09.211Z,57.39
2017-10-29T09:38:09.256Z,57.68
2017-10-29T09:39:09.573Z,57.68
2017-10-29T09:40:09.319Z,57.29
2017-10-29T09:41:09.344Z,57.13
2017-10-29T09:42:09.471Z,57.58
2017-10-29T09:43:09.416Z,57.58
2017-10-29T09:44:09.416Z,57.48
2017-10-29T09:45:09.771Z,57.70
2017-10-29T09:46:09.803Z,57.00
2017-10-29T09:47:09.527Z,57.10
2017-10-29T09:48:09.565Z,57.29
2017-10-29T09:49:09.583Z,56.91
2017-10-29T09:50:09.629Z,57.13
2017-10-29T09:51:09.939Z,57.10
2017-10-29T09:52:09.715Z,57.20
2017-10-29T09:53:09.723Z,56.84
2017-10-29T09:54:09.770Z,57.48
2017-10-29T09:55:09.762Z,57.03
2017-10-29T09:56:09.790Z,57.03
2017-10-29T09:57:10.067Z,57.00
2017-10-29T09:58:09.849Z,57.29
2017-10-29T09:59:09.905Z,57.00
2017-10-29T10:00:09.922Z,57.68
2017-10-29T10:01:09.944Z,57.10
2017-10-29T10:02:09.994Z,57.03
2017-10-29T10:03:10.326Z,57.00
2017-10-29T10:04:10.050Z,56.71
2017-10-29T10:05:10.063Z,57.20
2017-10-29T10:06:10.113Z,57.00
2017-10-29T10:07:10.142Z,56.91
2017-10-29T10:08:10.163Z,57.10
2017-10-29T10:09:10.469Z,57.13
2017-10-29T10:10:10.234Z,57.13
2017-10-29T10:11:10.267Z,57.39
2017-10-29T10:12:10.283Z,57.03
2017-10-29T10:13:10.335Z,57.03
2017-10-29T10:14:10.358Z,57.20
2017-10-29T10:15:10.691Z,57.13
2017-10-29T10:16:10.403Z,57.22
2017-10-29T10:17:10.433Z,57.13
2017-10-29T10:18:10.499Z,56.62
2017-10-29T10:19:10.552Z,56.93
2017-10-29T10:20:10.525Z,56.93
2017-10-29T10:21:10.657Z,57.32
2017-10-29T10:22:10.884Z,57.10
2017-10-29T10:23:10.636Z,57.13
2017-10-29T10:24:10.667Z,57.13
2017-10-29T10:25:10.733Z,57.70
2017-10-29T10:26:10.714Z,57.13
2017-10-29T10:27:10.757Z,57.32
2017-10-29T10:28:10.773Z,57.03
2017-10-29T10:29:11.104Z,57.70
2017-10-29T10:30:10.854Z,57.13
2017-10-29T10:31:10.865Z,57.03
2017-10-29T10:32:10.894Z,57.03
2017-10-29T10:33:10.929Z,56.93
2017-10-29T10:34:10.957Z,56.74
2017-10-29T10:35:11.018Z,57.03
2017-10-29T10:36:11.317Z,56.93
2017-10-29T10:37:11.065Z,56.74
2017-10-29T10:38:11.096Z,56.93
2017-10-29T10:39:11.109Z,56.84
2017-10-29T10:40:11.190Z,56.65
2017-10-29T10:41:11.172Z,56.93
2017-10-29T10:42:11.204Z,56.36
2017-10-29T10:43:11.512Z,56.74
2017-10-29T10:44:11.282Z,56.84
2017-10-29T10:45:11.299Z,56.65
2017-10-29T10:46:11.438Z,56.93
2017-10-29T10:47:11.362Z,56.93
2017-10-29T10:48:11.406Z,56.36
2017-10-29T10:49:11.430Z,55.88
2017-10-29T10:50:11.719Z,56.07
2017-10-29T10:51:11.508Z,55.98
2017-10-29T10:52:11.536Z,55.98
2017-10-29T10:53:11.570Z,55.98
2017-10-29T10:54:11.646Z,56.26
2017-10-29T10:55:11.605Z,56.26
2017-10-29T10:56:11.644Z,55.98
2017-10-29T10:57:11.989Z,55.68
2017-10-29T10:58:11.716Z,55.98
2017-10-29T10:59:11.762Z,56.26
2017-10-29T11:00:12.124Z,56.16
2017-10-29T11:01:11.942Z,55.98
2017-10-29T11:02:11.830Z,56.26
2017-10-29T11:03:11.854Z,55.88
2017-10-29T11:04:12.162Z,55.68
2017-10-29T11:05:11.970Z,55.78
2017-10-29T11:06:11.955Z,55.59
2017-10-29T11:07:11.982Z,56.16
2017-10-29T11:08:12.700Z,56.26
2017-10-29T11:09:12.056Z,56.84
2017-10-29T11:10:12.073Z,56.74
2017-10-29T11:11:12.672Z,55.88
2017-10-29T11:12:12.144Z,55.88
2017-10-29T11:13:12.180Z,55.88
2017-10-29T11:14:12.208Z,56.16
2017-10-29T11:15:13.251Z,56.07
2017-10-29T11:16:12.856Z,56.07
2017-10-29T11:17:12.310Z,56.07
2017-10-29T11:18:12.933Z,56.16
2017-10-29T11:19:12.371Z,55.88
2017-10-29T11:20:12.406Z,56.29
2017-10-29T11:21:12.784Z,56.45
2017-10-29T11:22:12.463Z,55.88
2017-10-29T11:23:12.474Z,55.59
2017-10-29T11:24:12.574Z,55.30
2017-10-29T11:25:12.876Z,55.90
2017-10-29T11:26:12.568Z,55.52
2017-10-29T11:27:12.600Z,55.33
2017-10-29T11:28:12.658Z,55.43
2017-10-29T11:29:12.689Z,55.20
2017-10-29T11:30:12.712Z,55.49
2017-10-29T11:31:12.754Z,55.20
2017-10-29T11:32:13.179Z,56.16
2017-10-29T11:33:12.788Z,55.49
2017-10-29T11:34:12.820Z,55.40
2017-10-29T11:35:12.853Z,55.20
2017-10-29T11:36:12.883Z,56.00
2017-10-29T11:37:12.917Z,55.71
2017-10-29T11:38:12.953Z,55.30
2017-10-29T11:39:13.285Z,55.43
2017-10-29T11:40:13.044Z,54.94
2017-10-29T11:41:13.040Z,55.20
2017-10-29T11:42:13.100Z,55.23
2017-10-29T11:43:13.119Z,55.43
2017-10-29T11:44:13.481Z,54.82
2017-10-29T11:45:13.487Z,54.91
2017-10-29T11:46:13.217Z,54.85
2017-10-29T11:47:13.228Z,55.11
2017-10-29T11:48:13.274Z,54.94
2017-10-29T11:49:13.312Z,55.11
2017-10-29T11:50:13.373Z,55.01
2017-10-29T11:51:13.632Z,55.30
2017-10-29T11:52:13.392Z,55.30
2017-10-29T11:53:13.429Z,54.94
2017-10-29T11:54:13.444Z,55.49
2017-10-29T11:55:13.498Z,55.68
2017-10-29T11:56:13.506Z,55.01
2017-10-29T11:57:13.816Z,55.30
2017-10-29T11:58:13.575Z,54.91
2017-10-29T11:59:13.623Z,55.49
2017-10-29T12:00:13.633Z,54.91
2017-10-29T12:01:13.779Z,55.01
2017-10-29T12:02:13.712Z,55.20
2017-10-29T12:03:13.976Z,55.20
2017-10-29T12:04:13.779Z,55.98
2017-10-29T12:05:13.786Z,56.10
2017-10-29T12:06:13.836Z,55.43
2017-10-29T12:07:13.900Z,55.20
2017-10-29T12:08:14.081Z,55.40
2017-10-29T12:09:14.166Z,55.49
2017-10-29T12:10:13.947Z,55.40
2017-10-29T12:11:13.994Z,55.30
2017-10-29T12:12:14.022Z,55.49
2017-10-29T12:13:14.058Z,55.49
2017-10-29T12:14:14.357Z,55.20
2017-10-29T12:15:14.349Z,55.20
2017-10-29T12:16:14.149Z,55.40
2017-10-29T12:17:14.161Z,55.20
2017-10-29T12:18:14.202Z,55.20
2017-10-29T12:19:14.333Z,55.33
2017-10-29T12:20:14.254Z,55.52
2017-10-29T12:21:14.588Z,55.88
2017-10-29T12:22:14.336Z,56.29
2017-10-29T12:23:14.357Z,55.81
2017-10-29T12:24:14.393Z,55.13
2017-10-29T12:25:14.414Z,55.04
2017-10-29T12:26:14.467Z,55.62
2017-10-29T12:27:14.798Z,54.85
2017-10-29T12:28:14.578Z,55.71
2017-10-29T12:29:14.559Z,55.13
2017-10-29T12:30:14.597Z,55.04
2017-10-29T12:31:14.634Z,55.33
2017-10-29T12:32:14.657Z,54.85
2017-10-29T12:33:14.965Z,54.85
2017-10-29T12:34:14.697Z,55.33
2017-10-29T12:35:14.744Z,55.04
2017-10-29T12:36:14.776Z,54.82
2017-10-29T12:37:14.832Z,54.85
2017-10-29T12:38:15.133Z,54.91
2017-10-29T12:39:15.170Z,55.20
2017-10-29T12:40:14.891Z,55.13
2017-10-29T12:41:14.955Z,54.82
2017-10-29T12:42:14.967Z,55.04
2017-10-29T12:43:14.978Z,54.85
2017-10-29T12:44:15.027Z,55.01
2017-10-29T12:45:15.318Z,55.13
2017-10-29T12:46:15.092Z,55.11
2017-10-29T12:47:15.118Z,54.94
2017-10-29T12:48:15.149Z,55.13
2017-10-29T12:49:15.170Z,55.23
2017-10-29T12:50:15.566Z,55.13
2017-10-29T12:51:15.556Z,54.94
2017-10-29T12:52:15.256Z,55.33
2017-10-29T12:53:15.305Z,55.43